Time;durP1;ratioP1;P1;durP2;ratioP2;P2;SDS_P1;SDS_P2;PMS_P1;PMS_P2;Temp;Humidity;BMP_temperature;BMP_pressure;BME280_temperature;BME280_humidity;BME280_pressure;Samples;Min_cycle;Max_cycle;Signal;HPM_P1;HPM_P2
2022/06/17 00:00:59;;;;;;;3.27;2.97;;;20.30;60.30;;;;;;5022727;28;20089;-68
2022/06/17 00:03:27;;;;;;;5.25;2.72;;;20.30;59.70;;;;;;5021518;28;20312;-68
2022/06/17 00:05:55;;;;;;;5.60;2.92;;;20.30;60.00;;;;;;5005513;28;20308;-68
2022/06/17 00:08:42;;;;;;;3.95;2.83;;;20.20;60.50;;;;;;4972652;28;20093;-68
2022/06/17 00:11:14;;;;;;;5.65;2.72;;;20.10;60.40;;;;;;4989688;28;20271;-69
2022/06/17 00:13:40;;;;;;;4.05;2.47;;;20.10;60.40;;;;;;5004551;28;20317;-69
2022/06/17 00:16:16;;;;;;;3.93;2.63;;;20.00;61.30;;;;;;5022734;28;20136;-68
2022/06/17 00:18:42;;;;;;;5.45;3.10;;;20.00;61.60;;;;;;5021850;28;20091;-68
2022/06/17 00:21:25;;;;;;;3.53;2.70;;;19.90;62.10;;;;;;5005108;28;20348;-68
2022/06/17 00:23:51;;;;;;;3.95;3.00;;;19.90;61.90;;;;;;4984819;28;20034;-68
2022/06/17 00:26:17;;;;;;;6.83;3.80;;;19.90;62.20;;;;;;4985617;28;20029;-69
2022/06/17 00:28:43;;;;;;;3.33;3.03;;;19.90;62.60;;;;;;5005209;28;20025;-68
2022/06/17 00:31:08;;;;;;;5.43;3.07;;;19.80;62.70;;;;;;5022399;28;20382;-68
2022/06/17 00:33:34;;;;;;;5.30;2.77;;;19.80;62.20;;;;;;5021385;28;20455;-68
2022/06/17 00:36:00;;;;;;;6.77;3.50;;;19.80;62.10;;;;;;5022271;28;20056;-69
2022/06/17 00:38:29;;;;;;;4.10;2.97;;;19.80;62.40;;;;;;5004797;28;20252;-69
2022/06/17 00:40:55;;;;;;;3.03;2.72;;;19.80;62.00;;;;;;5004794;28;20040;-68
2022/06/17 00:43:34;;;;;;;3.30;2.70;;;19.80;62.80;;;;;;4984709;28;20038;-69
2022/06/17 00:46:28;;;;;;;4.43;2.85;;;19.70;63.10;;;;;;4985537;28;20433;-69
2022/06/17 00:49:17;;;;;;;4.00;3.30;;;19.70;63.10;;;;;;5009665;28;20270;-69
2022/06/17 00:52:05;;;;;;;3.13;2.78;;;19.60;63.10;;;;;;4993164;28;20025;-68
2022/06/17 00:54:43;;;;;;;8.27;3.00;;;19.60;63.50;;;;;;5008556;28;20291;-68
2022/06/17 00:57:22;;;;;;;4.53;2.60;;;19.60;62.60;;;;;;4976875;28;20071;-68
2022/06/17 01:00:06;;;;;;;5.75;3.55;;;19.60;62.90;;;;;;4988546;28;20053;-68
2022/06/17 01:02:36;;;;;;;5.45;2.70;;;19.50;63.40;;;;;;5006494;28;20101;-68
2022/06/17 01:05:03;;;;;;;6.60;2.88;;;19.40;63.90;;;;;;4998938;28;20026;-68
2022/06/17 01:07:32;;;;;;;;;;;19.40;63.50;;;;;;5009031;28;20026;-69
2022/06/17 01:09:58;;;;;;;6.82;2.90;;;19.30;63.90;;;;;;5008684;28;19909;-68
2022/06/17 01:12:32;;;;;;;6.18;3.03;;;19.30;63.60;;;;;;5008759;28;20025;-68
2022/06/17 01:14:58;;;;;;;5.90;3.45;;;19.20;64.50;;;;;;5007828;28;20439;-68
2022/06/17 01:17:24;;;;;;;5.43;2.57;;;19.20;64.60;;;;;;5026001;28;20045;-68
2022/06/17 01:19:57;;;;;;;4.87;3.33;;;19.10;65.30;;;;;;5007533;28;20283;-68
2022/06/17 01:22:26;;;;;;;5.50;3.00;;;19.10;66.00;;;;;;4992343;28;20029;-68
2022/06/17 01:25:32;;;;;;;5.22;2.83;;;19.10;65.60;;;;;;5024603;28;20029;-68
2022/06/17 01:28:13;;;;;;;5.50;3.05;;;19.10;65.40;;;;;;5005319;28;20037;-68
2022/06/17 01:30:47;;;;;;;6.70;2.70;;;19.10;65.70;;;;;;5025053;28;20088;-69
2022/06/17 01:33:29;;;;;;;4.03;3.05;;;19.10;65.70;;;;;;5008954;28;20060;-68
2022/06/17 01:36:06;;;;;;;3.60;2.53;;;19.10;65.80;;;;;;5024699;28;20037;-68
2022/06/17 01:38:32;;;;;;;;;;;19.10;65.80;;;;;;5035276;23;20034;-65
2022/06/17 01:40:59;;;;;;;3.55;2.60;;;19.10;65.80;;;;;;5002366;28;19911;-65
2022/06/17 01:43:28;;;;;;;;;;;19.00;65.50;;;;;;5014226;28;20033;-65
2022/06/17 01:46:03;;;;;;;5.00;2.85;;;19.00;65.90;;;;;;5007489;28;20199;-65
2022/06/17 01:48:32;;;;;;;3.58;3.00;;;19.00;66.20;;;;;;4991814;28;20052;-65
2022/06/17 01:50:57;;;;;;;5.78;2.90;;;19.00;66.30;;;;;;5002724;28;20018;-65
2022/06/17 01:53:27;;;;;;;4.57;3.10;;;18.90;67.00;;;;;;4982571;28;20029;-65
2022/06/17 01:55:58;;;;;;;9.35;3.10;;;18.90;65.90;;;;;;5006901;28;20224;-65
2022/06/17 01:58:33;;;;;;;5.88;3.00;;;18.90;66.20;;;;;;5006366;28;20026;-64
2022/06/17 02:01:00;;;;;;;4.65;2.80;;;18.90;67.20;;;;;;4996538;28;20030;-65
2022/06/17 02:03:36;;;;;;;3.20;2.83;;;18.80;67.30;;;;;;4972601;28;20037;-65
2022/06/17 02:06:24;;;;;;;4.22;2.42;;;18.80;66.60;;;;;;4941390;28;20046;-65
2022/06/17 02:08:51;;;;;;;5.57;3.17;;;18.70;67.40;;;;;;5004683;28;20230;-65
2022/06/17 02:11:17;;;;;;;5.43;3.05;;;18.70;67.00;;;;;;4971247;28;20346;-65
2022/06/17 02:13:43;;;;;;;5.97;3.23;;;18.70;67.30;;;;;;4967338;28;20030;-65
2022/06/17 02:16:09;;;;;;;3.40;2.80;;;18.70;67.80;;;;;;4985121;28;20162;-65
2022/06/17 02:18:35;;;;;;;4.97;3.20;;;18.70;67.50;;;;;;4967463;28;20030;-65
2022/06/17 02:21:03;;;;;;;6.30;2.93;;;18.60;67.80;;;;;;4984882;28;20034;-65
2022/06/17 02:23:29;;;;;;;5.55;2.92;;;18.60;67.80;;;;;;4970746;28;20065;-65
2022/06/17 02:25:55;;;;;;;6.47;3.13;;;18.60;68.30;;;;;;4970783;28;20022;-66
2022/06/17 02:28:21;;;;;;;3.80;3.35;;;18.50;68.20;;;;;;5004457;28;20029;-66
2022/06/17 02:30:48;;;;;;;7.20;3.17;;;18.50;68.40;;;;;;4954447;28;20026;-65
2022/06/17 02:33:14;;;;;;;6.28;3.25;;;18.50;69.00;;;;;;4986105;28;20042;-66
2022/06/17 02:36:06;;;;;;;7.23;3.63;;;18.50;68.30;;;;;;4986808;28;20049;-66
2022/06/17 02:38:33;;;;;;;7.90;3.63;;;18.40;68.80;;;;;;4986505;28;20074;-65
2022/06/17 02:41:05;;;;;;;3.63;2.90;;;18.40;68.40;;;;;;4986798;28;20038;-65
2022/06/17 02:43:41;;;;;;;6.50;3.45;;;18.40;68.80;;;;;;4987133;28;20065;-66
2022/06/17 02:46:19;;;;;;;5.22;3.28;;;18.30;68.70;;;;;;4972251;28;20033;-66
2022/06/17 02:48:52;;;;;;;4.07;3.17;;;18.30;68.70;;;;;;4937163;28;20046;-66
2022/06/17 02:51:18;;;;;;;6.63;3.30;;;18.20;69.20;;;;;;4982991;28;20026;-66
2022/06/17 02:53:43;;;;;;;7.13;3.47;;;18.30;69.50;;;;;;4988486;28;20141;-65
2022/06/17 02:56:20;;;;;;;4.43;3.00;;;18.20;69.80;;;;;;4970462;28;20041;-66
2022/06/17 02:59:13;;;;;;;5.33;3.03;;;18.20;69.80;;;;;;4970761;28;20030;-66
2022/06/17 03:01:39;;;;;;;5.25;2.75;;;18.20;70.10;;;;;;4986258;28;20231;-66
2022/06/17 03:04:18;;;;;;;4.40;3.25;;;18.20;70.60;;;;;;5003033;28;20092;-66
2022/06/17 03:06:45;;;;;;;6.97;3.67;;;18.10;69.80;;;;;;4987040;28;20045;-66
2022/06/17 03:09:23;;;;;;;8.52;4.63;;;18.10;70.40;;;;;;4985690;28;20231;-66
2022/06/17 03:12:06;;;;;;;6.75;2.83;;;18.10;69.10;;;;;;5003299;28;20034;-66
2022/06/17 03:15:06;;;;;;;4.68;2.78;;;18.00;69.80;;;;;;5002380;28;20372;-66
2022/06/17 03:17:32;;;;;;;4.20;2.85;;;18.00;69.80;;;;;;4988643;28;20061;-66
2022/06/17 03:20:00;;;;;;;4.30;3.05;;;17.90;70.70;;;;;;4969713;28;20032;-66
2022/06/17 03:22:26;;;;;;;6.13;3.78;;;17.90;70.60;;;;;;4986018;28;20030;-66
2022/06/17 03:25:14;;;;;;;5.10;3.17;;;17.90;70.50;;;;;;4981351;28;20022;-66
2022/06/17 03:27:52;;;;;;;6.25;3.20;;;17.90;70.20;;;;;;4969262;28;20058;-66
2022/06/17 03:30:25;;;;;;;3.05;2.60;;;17.80;69.70;;;;;;4966647;28;20058;-66
2022/06/17 03:33:10;;;;;;;4.80;2.60;;;17.80;70.80;;;;;;4967075;28;20078;-65
2022/06/17 03:35:35;;;;;;;11.88;3.72;;;17.60;71.00;;;;;;4962645;28;20057;-66
2022/06/17 03:38:36;;;;;;;3.63;2.97;;;17.60;71.70;;;;;;4969479;28;20065;-66
2022/06/17 03:41:32;;;;;;;5.60;3.25;;;17.50;72.10;;;;;;4990231;28;20026;-66
2022/06/17 03:44:00;;;;;;;3.92;3.20;;;17.50;72.90;;;;;;4964372;28;20049;-66
2022/06/17 03:46:27;;;;;;;7.30;3.20;;;17.50;73.00;;;;;;4985631;28;20030;-65
2022/06/17 03:49:04;;;;;;;3.75;3.33;;;17.50;72.90;;;;;;4969151;28;20030;-66
2022/06/17 03:51:30;;;;;;;6.68;3.40;;;17.40;73.00;;;;;;4968188;28;20026;-66
2022/06/17 03:53:56;;;;;;;4.80;3.10;;;17.40;73.80;;;;;;4951885;28;20089;-66
2022/06/17 03:56:28;;;;;;;3.83;3.13;;;17.40;74.10;;;;;;4979826;28;20022;-66
2022/06/17 03:58:56;;;;;;;10.52;5.57;;;17.40;74.00;;;;;;4969597;28;20301;-66
2022/06/17 04:01:28;;;;;;;10.48;5.75;;;17.30;73.90;;;;;;4968987;28;20026;-66
2022/06/17 04:03:59;;;;;;;8.57;4.25;;;17.30;74.60;;;;;;4980328;28;20030;-66
2022/06/17 04:06:28;;;;;;;6.15;3.78;;;17.30;73.60;;;;;;4965745;28;20209;-66
2022/06/17 04:09:02;;;;;;;6.22;3.65;;;17.20;73.20;;;;;;4982358;28;20035;-66
2022/06/17 04:11:32;;;;;;;7.20;3.70;;;17.20;74.30;;;;;;4964935;28;20023;-66
2022/06/17 04:14:00;;;;;;;3.53;3.15;;;17.10;74.00;;;;;;4974166;28;20203;-66
2022/06/17 04:16:44;;;;;;;5.63;3.08;;;17.10;75.20;;;;;;4961098;28;20032;-65
2022/06/17 04:19:23;;;;;;;7.88;3.65;;;17.00;74.50;;;;;;4984523;28;20206;-66
2022/06/17 04:21:49;;;;;;;4.78;3.00;;;17.00;74.60;;;;;;5001409;28;20190;-66
2022/06/17 04:24:19;;;;;;;5.15;3.17;;;16.90;75.30;;;;;;5001336;28;20022;-65
2022/06/17 04:26:46;;;;;;;6.05;3.55;;;16.90;75.90;;;;;;4968109;28;20038;-65
2022/06/17 04:29:19;;;;;;;4.32;3.53;;;16.90;75.80;;;;;;4980975;28;20050;-65
2022/06/17 04:31:51;;;;;;;4.30;3.30;;;17.00;74.90;;;;;;4969098;28;20237;-65
2022/06/17 04:34:18;;;;;;;5.25;3.10;;;17.00;76.20;;;;;;4976090;28;20082;-66
2022/06/17 04:36:55;;;;;;;4.80;3.28;;;17.00;77.60;;;;;;4991972;28;20037;-66
2022/06/17 04:39:31;;;;;;;6.20;3.65;;;17.00;77.00;;;;;;4990591;28;20023;-66
2022/06/17 04:42:06;;;;;;;6.28;4.13;;;17.10;76.30;;;;;;4955097;28;20030;-66
2022/06/17 04:44:32;;;;;;;6.53;3.47;;;17.20;78.00;;;;;;4975928;28;20031;-65
2022/06/17 04:47:14;;;;;;;6.30;3.50;;;17.30;75.70;;;;;;4996789;28;20033;-66
2022/06/17 04:49:56;;;;;;;6.95;3.67;;;17.30;76.90;;;;;;4985350;28;20014;-65
2022/06/17 04:52:41;;;;;;;5.72;3.40;;;17.50;76.20;;;;;;4984853;28;20026;-66
2022/06/17 04:55:21;;;;;;;5.25;3.00;;;17.60;75.60;;;;;;4959564;28;20045;-66
2022/06/17 04:57:48;;;;;;;3.72;3.10;;;17.60;76.30;;;;;;4977421;28;20018;-65
2022/06/17 05:00:24;;;;;;;4.80;2.80;;;17.60;74.60;;;;;;5004255;28;20072;-66
2022/06/17 05:02:50;;;;;;;4.07;3.03;;;17.70;74.50;;;;;;5007021;28;20038;-66
2022/06/17 05:05:33;;;;;;;5.93;3.13;;;17.60;74.30;;;;;;5012522;28;20331;-65
2022/06/17 05:07:59;;;;;;;6.20;3.10;;;17.60;75.60;;;;;;4976671;28;20052;-64
2022/06/17 05:10:31;;;;;;;6.13;3.70;;;17.70;75.10;;;;;;4984356;28;20023;-64
2022/06/17 05:13:09;;;;;;;4.57;3.00;;;17.70;76.80;;;;;;4949235;28;20022;-65
2022/06/17 05:15:35;;;;;;;7.93;3.88;;;17.70;76.20;;;;;;4949258;28;20054;-64
2022/06/17 05:18:00;;;;;;;6.13;3.10;;;17.70;76.80;;;;;;4948812;28;20019;-63
2022/06/17 05:20:26;;;;;;;4.07;2.80;;;17.70;77.00;;;;;;4998708;28;20049;-62
2022/06/17 05:22:59;;;;;;;6.50;3.10;;;17.70;76.10;;;;;;5000778;28;20049;-62
2022/06/17 05:25:35;;;;;;;8.15;3.55;;;17.70;76.00;;;;;;4983960;28;20114;-63
2022/06/17 05:28:00;;;;;;;3.85;2.60;;;17.80;75.70;;;;;;5000217;28;20034;-63
2022/06/17 05:30:31;;;;;;;3.90;3.10;;;17.80;76.30;;;;;;5001078;28;20222;-63
2022/06/17 05:32:56;;;;;;;4.80;2.95;;;17.80;76.90;;;;;;5001916;28;20026;-63
2022/06/17 05:35:22;;;;;;;4.33;3.70;;;17.80;76.00;;;;;;4987177;28;20085;-63
2022/06/17 05:37:49;;;;;;;5.30;2.90;;;17.90;77.10;;;;;;5004462;28;20033;-67
2022/06/17 05:40:15;;;;;;;5.03;2.75;;;17.80;74.60;;;;;;5004083;28;20026;-67
2022/06/17 05:42:43;;;;;;;4.20;2.30;;;17.80;77.70;;;;;;5004159;28;20072;-67
2022/06/17 05:45:17;;;;;;;6.30;2.85;;;17.80;74.00;;;;;;5003943;28;20324;-67
2022/06/17 05:47:43;;;;;;;3.72;2.67;;;17.70;73.30;;;;;;4987298;28;20121;-67
2022/06/17 05:50:11;;;;;;;5.60;2.80;;;17.70;76.90;;;;;;5004514;28;20237;-67
2022/06/17 05:53:07;;;;;;;4.05;2.80;;;17.80;76.30;;;;;;5004261;28;20081;-67
2022/06/17 05:55:34;;;;;;;5.32;2.83;;;17.80;78.00;;;;;;4984370;28;20034;-67
2022/06/17 05:58:00;;;;;;;3.47;2.65;;;17.90;75.80;;;;;;4984602;28;20023;-67
2022/06/17 06:00:26;;;;;;;3.60;3.00;;;17.90;75.90;;;;;;4999794;28;20081;-67
2022/06/17 06:02:58;;;;;;;6.05;3.28;;;18.00;75.00;;;;;;4986373;28;20029;-67
2022/06/17 06:05:26;;;;;;;3.53;2.88;;;18.00;74.30;;;;;;4982366;28;20038;-67
2022/06/17 06:07:52;;;;;;;5.22;2.75;;;18.00;76.00;;;;;;4998730;28;20053;-67
2022/06/17 06:10:17;;;;;;;4.57;2.57;;;18.10;75.30;;;;;;4986599;28;20042;-67
2022/06/17 06:13:05;;;;;;;6.60;2.63;;;18.10;74.70;;;;;;4986738;28;20229;-67
2022/06/17 06:15:33;;;;;;;5.05;2.83;;;18.20;76.20;;;;;;4988609;28;20034;-67
2022/06/17 06:17:59;;;;;;;6.03;2.97;;;18.30;75.70;;;;;;5003867;28;20069;-67
2022/06/17 06:20:25;;;;;;;6.40;2.73;;;18.30;75.80;;;;;;4992313;28;20110;-67
2022/06/17 06:22:51;;;;;;;5.95;3.08;;;18.40;76.10;;;;;;4986734;28;20031;-67
2022/06/17 06:25:17;;;;;;;3.37;2.60;;;18.40;76.20;;;;;;5000968;28;20034;-67
2022/06/17 06:27:43;;;;;;;5.07;3.15;;;18.40;76.20;;;;;;5003716;28;20194;-67
2022/06/17 06:30:28;;;;;;;6.85;2.85;;;18.50;75.60;;;;;;5002912;28;20030;-67
2022/06/17 06:32:59;;;;;;;4.65;2.55;;;18.50;75.20;;;;;;5003440;28;20026;-67
2022/06/17 06:35:28;;;;;;;5.22;2.72;;;18.60;73.40;;;;;;4987081;28;20026;-67
2022/06/17 06:37:54;;;;;;;4.78;2.90;;;18.60;73.80;;;;;;5003525;28;20120;-67
2022/06/17 06:40:20;;;;;;;5.47;2.27;;;18.70;73.00;;;;;;5003751;28;20158;-66
2022/06/17 06:42:47;;;;;;;4.97;2.97;;;18.60;72.10;;;;;;5003239;28;20022;-67
2022/06/17 06:45:22;;;;;;;5.90;2.58;;;18.70;72.40;;;;;;5001356;28;20022;-66
2022/06/17 06:47:48;;;;;;;3.25;2.30;;;18.70;73.50;;;;;;5003369;28;20014;-67
2022/06/17 06:50:17;;;;;;;6.60;2.60;;;18.80;72.90;;;;;;5003386;28;20034;-67
2022/06/17 06:52:43;;;;;;;4.28;2.60;;;18.80;72.70;;;;;;5002957;28;20026;-67
2022/06/17 06:55:10;;;;;;;4.25;2.72;;;18.80;75.10;;;;;;5002205;28;20141;-67
2022/06/17 06:57:49;;;;;;;5.15;2.47;;;18.90;74.70;;;;;;4985724;28;20097;-67
2022/06/17 07:00:37;;;;;;;3.33;2.40;;;18.90;72.40;;;;;;4969516;28;20042;-67
2022/06/17 07:03:03;;;;;;;;;;;19.00;69.40;;;;;;5003125;28;20082;-66
2022/06/17 07:05:30;;;;;;;5.97;2.88;;;19.00;70.70;;;;;;5002091;28;20224;-67
2022/06/17 07:07:57;;;;;;;3.45;2.63;;;19.10;71.30;;;;;;4969672;28;20073;-67
2022/06/17 07:10:26;;;;;;;5.40;2.55;;;19.10;71.40;;;;;;5002264;28;20026;-66
2022/06/17 07:12:53;;;;;;;4.85;2.55;;;19.10;70.20;;;;;;5002622;28;20161;-67
2022/06/17 07:15:18;;;;;;;5.85;2.88;;;19.10;72.00;;;;;;5002240;28;20232;-66
2022/06/17 07:18:04;;;;;;;5.80;2.70;;;19.20;72.80;;;;;;5002643;28;20089;-67
2022/06/17 07:20:42;;;;;;;5.40;2.47;;;19.20;69.10;;;;;;4981073;28;20030;-67
2022/06/17 07:23:12;;;;;;;;;;;19.20;66.90;;;;;;4983250;28;20061;-67
2022/06/17 07:25:38;;;;;;;3.30;2.30;;;19.30;67.10;;;;;;4983156;28;19905;-67
2022/06/17 07:28:05;;;;;;;4.03;2.42;;;19.30;67.10;;;;;;4982876;28;20239;-66
2022/06/17 07:30:31;;;;;;;4.88;2.70;;;19.40;66.80;;;;;;4998912;28;20091;-67
2022/06/17 07:32:57;;;;;;;2.70;2.20;;;19.40;69.50;;;;;;5002177;28;20093;-67
2022/06/17 07:35:23;;;;;;;5.07;2.23;;;19.40;70.50;;;;;;5002387;28;20156;-67
2022/06/17 07:40:33;;;;;;;2.92;2.42;;;19.50;70.20;;;;;;4987526;28;20037;-66
2022/06/17 07:42:59;;;;;;;3.93;2.10;;;19.60;67.50;;;;;;4984425;28;20221;-67
2022/06/17 07:45:25;;;;;;;3.37;2.67;;;19.60;68.80;;;;;;4994834;28;20038;-66
2022/06/17 07:47:52;;;;;;;3.63;2.40;;;19.70;70.50;;;;;;4964926;28;20428;-67
2022/06/17 07:50:27;;;;;;;3.15;2.65;;;19.70;70.70;;;;;;4982679;28;20038;-67
2022/06/17 07:52:52;;;;;;;4.03;2.30;;;19.80;70.60;;;;;;4982654;28;20026;-67
2022/06/17 07:55:18;;;;;;;4.30;2.30;;;19.80;64.90;;;;;;4982149;28;20102;-67
2022/06/17 07:57:44;;;;;;;4.87;2.30;;;19.90;65.10;;;;;;4982353;28;20030;-67
2022/06/17 08:00:26;;;;;;;5.43;2.80;;;19.90;66.20;;;;;;4982246;28;20022;-67
2022/06/17 08:02:52;;;;;;;3.67;2.35;;;20.00;67.50;;;;;;4966829;28;20031;-67
2022/06/17 08:05:18;;;;;;;3.83;1.90;;;20.00;64.30;;;;;;4982266;28;20073;-67
2022/06/17 08:07:44;;;;;;;3.80;2.60;;;20.10;64.00;;;;;;4981816;28;20074;-66
2022/06/17 08:10:13;;;;;;;3.23;2.30;;;20.20;65.40;;;;;;4982267;28;20037;-66
2022/06/17 08:12:39;;;;;;;4.90;2.13;;;20.20;64.70;;;;;;4972844;28;20050;-67
2022/06/17 08:15:05;;;;;;;5.25;2.67;;;20.20;65.60;;;;;;4982043;28;20289;-67
2022/06/17 08:17:31;;;;;;;5.63;2.72;;;20.20;66.40;;;;;;4982149;28;20027;-67
2022/06/17 08:19:58;;;;;;;8.60;2.73;;;20.30;66.10;;;;;;5001087;28;20026;-67
2022/06/17 08:22:25;;;;;;;4.15;1.88;;;20.30;61.70;;;;;;5001621;28;20048;-66
2022/06/17 08:24:52;;;;;;;5.47;2.10;;;20.40;62.20;;;;;;4983951;28;20030;-67
2022/06/17 08:27:18;;;;;;;3.78;1.95;;;20.40;61.80;;;;;;5001288;28;20018;-68
2022/06/17 08:29:44;;;;;;;6.65;2.72;;;20.50;62.80;;;;;;5000587;28;20053;-67
2022/06/17 08:34:54;;;;;;;4.90;1.90;;;20.60;64.40;;;;;;5000596;28;20133;-67
2022/06/17 08:37:19;;;;;;;4.30;2.53;;;20.60;63.50;;;;;;5001097;28;20034;-66
2022/06/17 08:39:46;;;;;;;7.27;2.27;;;20.70;60.10;;;;;;5001294;28;20026;-67
2022/06/17 08:42:35;;;;;;;5.90;2.15;;;20.70;60.80;;;;;;4983475;28;20321;-67
2022/06/17 08:45:33;;;;;;;4.45;2.08;;;20.80;59.80;;;;;;4985773;28;20026;-67
2022/06/17 08:48:20;;;;;;;4.40;2.25;;;20.80;61.70;;;;;;5001036;28;20290;-67
2022/06/17 08:51:36;;;;;;;3.00;2.13;;;20.90;63.00;;;;;;4983822;28;20026;-67
2022/06/17 08:54:32;;;;;;;4.50;2.90;;;21.10;60.60;;;;;;4985929;28;20025;-67
2022/06/17 08:57:13;;;;;;;3.88;2.33;;;21.20;62.00;;;;;;4968549;28;20549;-67
2022/06/17 09:00:18;;;;;;;6.05;2.17;;;21.30;62.80;;;;;;4969322;28;20034;-67
2022/06/17 09:02:53;;;;;;;3.83;2.30;;;21.40;60.90;;;;;;4980220;28;20055;-67
2022/06/17 09:05:41;;;;;;;3.60;2.50;;;21.40;62.60;;;;;;4981606;28;20038;-67
2022/06/17 09:08:38;;;;;;;3.85;2.35;;;21.50;63.20;;;;;;4965903;28;20069;-68
2022/06/17 09:11:19;;;;;;;5.15;2.25;;;21.50;61.80;;;;;;4985664;28;20061;-67
2022/06/17 09:14:23;;;;;;;4.03;3.00;;;21.50;63.30;;;;;;4983753;28;20048;-67
2022/06/17 09:17:11;;;;;;;3.35;2.10;;;21.70;58.40;;;;;;5004894;28;20034;-67
2022/06/17 09:19:42;;;;;;;4.40;2.28;;;21.80;57.50;;;;;;4986931;28;20379;-68
2022/06/17 09:22:24;;;;;;;5.80;2.30;;;21.80;57.60;;;;;;5004371;28;20038;-67
2022/06/17 09:24:50;;;;;;;3.85;2.13;;;21.90;57.50;;;;;;4955931;28;20026;-69
2022/06/17 09:27:21;;;;;;;5.87;2.40;;;21.90;58.70;;;;;;4978484;28;20154;-69
2022/06/17 09:30:20;;;;;;;5.00;2.55;;;22.00;58.60;;;;;;4967702;28;20056;-69
2022/06/17 09:32:49;;;;;;;4.90;2.55;;;22.00;58.00;;;;;;4986187;28;20098;-71
2022/06/17 09:35:39;;;;;;;3.15;2.13;;;21.90;59.50;;;;;;4986787;28;20097;-69
2022/06/17 09:38:07;;;;;;;2.88;2.00;;;21.90;59.30;;;;;;4986471;28;20034;-68
2022/06/17 09:40:45;;;;;;;5.85;2.28;;;22.00;58.10;;;;;;4985564;28;20116;-68
2022/06/17 09:43:24;;;;;;;3.70;2.13;;;22.00;59.90;;;;;;4970911;28;20030;-69
2022/06/17 09:46:13;;;;;;;2.30;1.90;;;22.10;60.20;;;;;;5002413;28;20041;-69
2022/06/17 09:48:59;;;;;;;2.25;1.95;;;22.10;59.90;;;;;;4987220;28;20363;-69
2022/06/17 09:51:43;;;;;;;3.78;1.90;;;22.20;56.60;;;;;;5002279;28;20054;-68
2022/06/17 09:54:33;;;;;;;4.13;2.13;;;22.20;57.20;;;;;;4963847;28;20097;-69
2022/06/17 09:57:10;;;;;;;2.05;1.83;;;22.20;58.40;;;;;;4976892;28;20030;-69
2022/06/17 09:59:44;;;;;;;5.43;1.90;;;22.20;58.70;;;;;;5003023;28;20271;-69
2022/06/17 10:02:33;;;;;;;2.95;2.00;;;22.30;56.10;;;;;;4953882;28;20030;-69
2022/06/17 10:05:00;;;;;;;5.20;1.85;;;22.40;56.50;;;;;;4965996;28;20031;-68
2022/06/17 10:07:37;;;;;;;3.85;1.73;;;22.50;55.70;;;;;;4950379;28;20019;-69
2022/06/17 10:10:36;;;;;;;2.22;1.63;;;22.50;57.50;;;;;;4965972;28;20054;-68
2022/06/17 10:13:28;;;;;;;3.63;2.08;;;22.60;55.90;;;;;;4953701;28;20033;-69
2022/06/17 10:18:49;;;;;;;3.15;1.83;;;22.70;57.40;;;;;;4968325;28;20054;-69
2022/06/17 10:21:33;;;;;;;2.97;2.10;;;22.70;56.60;;;;;;4981648;28;20176;-69
2022/06/17 10:24:24;;;;;;;3.33;2.13;;;22.70;56.00;;;;;;4983047;28;20038;-69
2022/06/17 10:27:01;;;;;;;4.63;1.88;;;22.70;54.30;;;;;;4991899;28;20129;-67
2022/06/17 10:30:00;;;;;;;5.60;2.17;;;22.70;55.50;;;;;;5001872;28;20022;-67
2022/06/17 10:32:26;;;;;;;2.85;1.90;;;22.70;57.00;;;;;;5002573;28;20026;-67
2022/06/17 10:35:02;;;;;;;4.05;1.40;;;22.70;57.20;;;;;;5000754;28;20082;-67
2022/06/17 10:37:29;;;;;;;3.47;1.70;;;22.80;54.30;;;;;;4962419;28;1113915;-65
2022/06/17 10:39:55;;;;;;;3.05;1.75;;;22.90;55.20;;;;;;4969918;28;20021;-65
2022/06/17 10:42:20;;;;;;;2.75;1.80;;;23.10;53.90;;;;;;5003228;28;20042;-65
2022/06/17 10:44:50;;;;;;;5.60;2.20;;;23.10;52.00;;;;;;4969698;28;20030;-65
2022/06/17 10:47:37;;;;;;;4.60;2.50;;;23.10;53.70;;;;;;4986446;28;20381;-65
2022/06/17 10:50:11;;;;;;;1.83;1.70;;;23.10;53.60;;;;;;4985774;28;20019;-65
2022/06/17 10:52:42;;;;;;;3.30;1.98;;;23.10;52.80;;;;;;4970350;28;20039;-65
2022/06/17 10:55:57;;;;;;;3.72;1.90;;;23.20;53.50;;;;;;4970426;28;20044;-65
2022/06/17 10:58:29;;;;;;;3.35;1.83;;;23.30;53.30;;;;;;4959661;28;20108;-65
2022/06/17 11:01:03;;;;;;;2.88;1.67;;;23.40;55.20;;;;;;4969861;28;20026;-65
2022/06/17 11:03:39;;;;;;;2.80;1.85;;;23.40;53.70;;;;;;5003278;28;20034;-65
2022/06/17 11:06:22;;;;;;;3.50;1.75;;;23.40;51.40;;;;;;5003243;28;20030;-65
2022/06/17 11:09:01;;;;;;;2.15;1.48;;;23.40;52.50;;;;;;4969821;28;20099;-65
2022/06/17 11:14:29;;;;;;;2.35;1.45;;;23.70;51.90;;;;;;5002875;28;20581;-65
2022/06/17 11:16:54;;;;;;;2.35;1.30;;;23.80;52.10;;;;;;4969904;28;20102;-65
2022/06/17 11:19:23;;;;;;;2.30;1.73;;;24.10;51.40;;;;;;5002773;28;20022;-65
2022/06/17 11:22:02;;;;;;;4.88;1.85;;;24.20;51.10;;;;;;4985339;28;20030;-65
2022/06/17 11:24:40;;;;;;;3.85;1.63;;;24.20;51.70;;;;;;4969153;28;20031;-65
2022/06/17 11:27:30;;;;;;;3.45;1.98;;;24.40;49.20;;;;;;4970754;28;20018;-65
2022/06/17 11:30:19;;;;;;;2.58;1.88;;;24.50;51.20;;;;;;4985311;28;20027;-65
2022/06/17 11:32:45;;;;;;;3.15;1.38;;;24.60;51.20;;;;;;4986949;28;20022;-65
2022/06/17 11:35:33;;;;;;;1.73;1.60;;;24.60;51.00;;;;;;5001976;28;20268;-66
2022/06/17 11:38:02;;;;;;;1.30;1.20;;;24.70;49.30;;;;;;5002225;28;20034;-65
2022/06/17 11:40:32;;;;;;;4.05;1.83;;;24.80;49.20;;;;;;4985378;28;20026;-65
2022/06/17 11:43:02;;;;;;;3.97;2.70;;;24.90;47.60;;;;;;4980737;28;20098;-65
2022/06/17 11:45:31;;;;;;;2.22;1.50;;;24.90;47.20;;;;;;4950220;28;20030;-66
2022/06/17 11:48:08;;;;;;;4.13;1.85;;;24.90;46.90;;;;;;5000445;28;20458;-66
2022/06/17 11:50:40;;;;;;;6.13;3.60;;;25.00;48.30;;;;;;4970253;28;20038;-65
2022/06/17 11:53:13;;;;;;;5.50;3.60;;;25.10;48.70;;;;;;4969763;28;20022;-66
2022/06/17 11:55:43;;;;;;;3.88;1.67;;;25.20;47.00;;;;;;4949255;28;20373;-65
2022/06/17 11:58:09;;;;;;;1.63;1.35;;;25.30;44.70;;;;;;4949822;28;20022;-65
2022/06/17 12:00:52;;;;;;;2.55;1.55;;;25.50;47.60;;;;;;4965366;28;20427;-65
2022/06/17 12:03:22;;;;;;;1.63;1.20;;;25.60;45.90;;;;;;4998101;28;20078;-65
2022/06/17 12:05:59;;;;;;;4.10;1.60;;;25.60;47.70;;;;;;4974490;28;20133;-66
2022/06/17 12:08:45;;;;;;;2.05;1.55;;;25.70;46.90;;;;;;4991876;28;20434;-65
2022/06/17 12:11:14;;;;;;;9.02;3.25;;;25.80;44.40;;;;;;4959693;28;20105;-65
2022/06/17 12:13:47;;;;;;;4.97;1.73;;;25.90;44.50;;;;;;4949155;28;20027;-65
2022/06/17 12:16:39;;;;;;;5.85;2.40;;;26.00;44.10;;;;;;4933729;28;20037;-65
2022/06/17 12:19:16;;;;;;;2.03;1.27;;;26.10;46.10;;;;;;4967915;28;20030;-65
2022/06/17 12:21:58;;;;;;;3.22;1.20;;;26.20;48.50;;;;;;4951506;28;20027;-65
2022/06/17 12:24:44;;;;;;;2.35;1.63;;;26.30;43.30;;;;;;4982118;28;20042;-65
2022/06/17 12:27:36;;;;;;;3.08;1.30;;;26.50;44.50;;;;;;4984778;28;20040;-66
2022/06/17 12:30:04;;;;;;;1.73;1.30;;;26.70;44.10;;;;;;4953847;28;20033;-66
2022/06/17 12:33:02;;;;;;;1.00;1.00;;;26.80;45.00;;;;;;4980421;28;20023;-65
2022/06/17 12:35:35;;;;;;;2.25;1.20;;;27.00;43.40;;;;;;4964858;28;20018;-65
2022/06/17 12:38:03;;;;;;;2.40;1.40;;;27.10;45.40;;;;;;4964788;28;20273;-65
2022/06/17 12:40:54;;;;;;;2.03;1.25;;;27.20;46.50;;;;;;4964677;28;20095;-65
2022/06/17 12:43:25;;;;;;;2.55;1.20;;;27.40;45.40;;;;;;4944134;28;20261;-65
2022/06/17 12:46:03;;;;;;;1.63;1.00;;;27.50;43.80;;;;;;4982113;28;20050;-65
2022/06/17 12:48:52;;;;;;;2.28;1.30;;;27.60;42.40;;;;;;5001146;28;20022;-64
2022/06/17 12:54:34;;;;;;;1.67;1.20;;;27.90;44.30;;;;;;4979932;28;20069;-66
2022/06/17 12:57:17;;;;;;;2.80;1.38;;;28.10;44.20;;;;;;4949967;28;20093;-66
2022/06/17 13:00:05;;;;;;;2.78;1.38;;;28.30;43.90;;;;;;4950572;28;20022;-65
2022/06/17 13:03:12;;;;;;;;;;;28.50;45.90;;;;;;4995098;28;20030;-66
2022/06/17 13:05:44;;;;;;;2.22;0.88;;;28.70;42.30;;;;;;4986635;28;19929;-65
2022/06/17 13:08:42;;;;;;;2.58;1.05;;;28.80;41.00;;;;;;5001372;28;20126;-65
2022/06/17 13:11:44;;;;;;;2.17;1.10;;;29.00;38.50;;;;;;4968717;28;20018;-66
2022/06/17 13:14:39;;;;;;;1.17;1.00;;;29.10;38.50;;;;;;4943949;28;20098;-66
2022/06/17 13:17:35;;;;;;;2.60;1.00;;;29.10;39.90;;;;;;4980004;28;20447;-66
2022/06/17 13:20:24;;;;;;;3.80;1.23;;;29.40;39.10;;;;;;4964786;28;20094;-65
2022/06/17 13:23:22;;;;;;;3.10;1.00;;;29.70;39.20;;;;;;4966256;28;20385;-65
2022/06/17 13:25:56;;;;;;;0.98;0.90;;;30.00;37.70;;;;;;4967313;28;20093;-66
2022/06/17 13:28:28;;;;;;;3.05;1.10;;;30.20;36.20;;;;;;4968155;28;20026;-66
2022/06/17 13:30:57;;;;;;;2.13;1.02;;;30.30;37.50;;;;;;4983987;28;20027;-66
2022/06/17 13:33:48;;;;;;;3.08;1.05;;;30.50;35.00;;;;;;4967585;28;20038;-66
2022/06/17 13:36:17;;;;;;;3.17;1.30;;;30.40;35.50;;;;;;4983804;28;20249;-66
2022/06/17 13:39:04;;;;;;;1.63;1.02;;;30.70;36.20;;;;;;4952154;28;20022;-66
2022/06/17 13:42:08;;;;;;;3.07;1.03;;;31.00;37.60;;;;;;4968171;28;20030;-66